Coober Pedy, Australia
Current Conditions -  °F | °C
As of 1:00 PM on Tuesday 27 Jan 2015 (Local Time) from YCBP Reporting Station
Clear Clear  
Wind Chill: 79°   Ceiling: Unl
Heat Index: 79°   Visibility: NA
Dew Point: 39°   Wind: 16mph
Humidity: 24%   Direction: 180°S
Pressure: 29.94"   Gusts: NA
Location:  29.01°S, 134.75°E
Report Text: YCBP 270300Z AUTO 18014KT //// // NCD 26/04 Q1014
Loading
Personal Weather Stations






























Interactive Weather Map New forecast layout! Learn more

10-Day Weather Forecast

Advertisements
Track Severe Weather on mobile